Search flights

St Mary's Airport, St Mary's (PASM)

Airport Weather & NOTAM's

SPECI for:PASM (St Marys Arpt, AK, US)
Text:PASM 121917Z AUTO 11012KT 10SM -RA OVC011 11/10 A2949 RMK AO2 P0001
Conditions at:1917 UTC 12 Jul 2024
Temperature: 11.0°C ( 52°F)
Dewpoint: 10.0°C ( 50°F) [RH = 94%]
Pressure (altimeter):29.49 inches Hg ( 998.7 mb)
Winds:from the ESE (110 degrees) at 14 MPH (12 knots; 6.2 m/s)
Visibility:10 or more sm (16+ km)
Ceiling:1100 feet AGL
Clouds:overcast cloud deck at 1100 feet AGL
Weather:-RA (light rain)
QC Flag:automated observation with no human augmentation

Departures History (last 12 months)

Flight No. Dest. Aircraft Date
AA2163 PANI [LN] Alask... 2024-07-09 11:05:18
AA2163 PANI Cessna 208... 2024-06-30 21:09:42
AA2141 PAMC C208 2024-05-28 18:18:00
AA2141 PAMC C208 2024-05-26 18:18:00
AA8291102 PAMC AC50 2024-05-10 11:00:00
AA2007 PAMO C208 2024-05-07 11:00:00
AA8292007 PAMO AC50 2024-05-06 11:00:00
AA8291102 PAMC C46A 2024-04-09 11:00:00
AA1102 PAMC C208 2024-04-09 10:00:00
AA8291102 PAMC C185 2024-03-26 11:00:00
AA8291102 PAMC AC50 2024-03-17 11:00:00
AA3 PAMC C208 2024-03-17 11:00:00
AA8291102 PAMC AC50 2024-03-15 11:00:00
AA8291102 PAMC AC50 2024-03-15 11:00:00
AA8291102 PAMC AC50 2024-03-15 11:00:00
AA3 PAMC DHC6 2024-03-15 11:00:00
AA3 PAMC DHC6 2024-03-15 11:00:00
AA3 PAMC DHC6 2024-03-15 11:00:00
AA8291102 PAMC AC50 2024-03-11 11:00:00
AA3 PAMC C208 2024-03-11 11:00:00
AA8292007 PAMC AC50 2024-02-26 11:00:00
AA2007 PAMC C208 2024-02-26 11:00:00

Arrivals History (last 12 months)

Flight No. Origin Aircraft Date
AA2162 PANC DHC-4 Cari... 2024-07-08 13:44:49
AA2162 PANC Cessna 208... 2024-06-29 23:46:22
AA2140 PABE C208 2024-05-28 17:14:00
AA2140 PABE C208 2024-05-26 17:14:00
AA8291102 PABE DHC2 2024-05-10 13:00:00
AA2007 PADM C208 2024-05-07 14:00:00
AA8292007 PADM AC50 2024-05-06 13:00:00
AA8291102 PAHP BT67 2024-04-30 13:00:00
AA2 PAHP C208 2024-04-30 13:00:00
AA8291102 PAHP C208 2024-04-21 13:00:00
AA2 PAHP C208 2024-04-21 13:00:00
AA8291102 PABE AC50 2024-04-09 13:00:00
AA1102 PABE C208 2024-04-09 13:00:00
AA8291102 PABE DHC2 2024-03-26 13:00:00
AA8291102 PABE AC50 2024-03-16 13:00:00
AA2 PABE C208 2024-03-16 14:00:00
AA8291102 PABE AC50 2024-03-13 13:00:00
AA2 PABE DHC6 2024-03-13 13:00:00
AA8291102 PABE AC50 2024-03-11 13:00:00
AA2 PABE C208 2024-03-11 13:00:00
AA2007 PABE C208 2024-02-26 14:00:00
AA8292007 PABE AC50 2024-02-25 13:00:00

Runway Information (Airport elevation: 314ft)

Runway 06 Length 1,734ft Width 60ft Elevation 306ft Surface Asphalt Heading 77
Runway 17 Length 6,424ft Width 107ft Elevation 306ft Surface Asphalt Heading 183
Runway 24 Length 1,734ft Width 60ft Elevation 306ft Surface Asphalt Heading 257
Runway 35 Length 6,424ft Width 107ft Elevation 306ft Surface Asphalt Heading 3

Airport Frequencies

Type APP/DEP Frequency 124.000 Mhz
Type AWOS Frequency 128.700 Mhz
Type D Frequency 124.000 Mhz
Type CTAF Frequency 122.300 Mhz
Type AWOS Frequency 118.350 Mhz
Type AWOS Frequency 128.700 Mhz
Type CTR Frequency 124.000 Mhz
Type FSS Frequency 122.350 Mhz
Type MC Frequency 122.300 Mhz

Airport Navaids

Type NDB Ident SMA Frequency 230 Khz